Time;durP1;ratioP1;P1;durP2;ratioP2;P2;SDS_P1;SDS_P2;PMS_P1;PMS_P2;Temp;Humidity;BMP_temperature;BMP_pressure;BME280_temperature;BME280_humidity;BME280_pressure;Samples;Min_cycle;Max_cycle;Signal;HPM_P1;HPM_P2
2024/01/27 00:01:21;;;;;;;15.20;3.00;;;5.60;99.90;;;;;;5060728;28;20196;-58
2024/01/27 00:03:46;;;;;;;7.77;2.53;;;5.60;99.90;;;;;;5076430;28;20586;-58
2024/01/27 00:06:12;;;;;;;14.07;3.33;;;5.60;99.90;;;;;;5076827;28;20205;-52
2024/01/27 00:08:37;;;;;;;11.87;4.47;;;5.60;99.90;;;;;;5080499;28;20239;-53
2024/01/27 00:11:03;;;;;;;10.50;2.60;;;5.50;99.90;;;;;;5080208;28;20204;-53
2024/01/27 00:13:28;;;;;;;14.90;3.07;;;5.50;99.90;;;;;;5075429;28;20213;-52
2024/01/27 00:15:54;;;;;;;8.10;2.83;;;5.50;99.90;;;;;;5087515;28;20213;-52
2024/01/27 00:18:20;;;;;;;8.93;3.03;;;5.50;99.90;;;;;;5074016;28;20316;-53
2024/01/27 00:20:46;;;;;;;18.20;4.43;;;5.50;99.90;;;;;;5072609;28;20657;-53
2024/01/27 00:23:11;;;;;;;12.27;3.17;;;5.50;99.90;;;;;;5075175;28;20705;-53
2024/01/27 00:25:37;;;;;;;15.37;4.27;;;5.50;99.90;;;;;;5054583;28;20197;-54
2024/01/27 00:28:02;;;;;;;13.43;3.10;;;5.40;99.90;;;;;;5084324;28;20201;-54
2024/01/27 00:30:28;;;;;;;17.77;4.07;;;5.40;99.90;;;;;;5081239;28;20203;-54
2024/01/27 00:32:53;;;;;;;15.00;3.20;;;5.40;99.90;;;;;;5079243;28;20226;-53
2024/01/27 00:35:19;;;;;;;13.70;2.93;;;5.40;99.90;;;;;;5081032;28;20197;-52
2024/01/27 00:37:44;;;;;;;7.63;2.47;;;5.30;99.90;;;;;;5059264;28;20823;-54
2024/01/27 00:40:11;;;;;;;12.37;3.10;;;5.40;99.90;;;;;;5063375;28;20207;-53
2024/01/27 00:42:37;;;;;;;15.97;4.17;;;5.40;99.90;;;;;;5080837;28;20205;-53
2024/01/27 00:45:04;;;;;;;14.60;2.83;;;5.40;99.90;;;;;;5078191;28;20266;-53
2024/01/27 00:47:30;;;;;;;15.63;4.47;;;5.30;99.90;;;;;;5076685;28;20315;-51
2024/01/27 00:49:56;;;;;;;11.70;3.47;;;5.40;99.90;;;;;;5075606;28;20708;-52
2024/01/27 00:52:21;;;;;;;13.57;3.70;;;5.40;99.90;;;;;;5073510;28;20220;-53
2024/01/27 00:54:47;;;;;;;15.60;4.70;;;5.30;99.90;;;;;;5081258;28;20277;-53
2024/01/27 00:57:12;;;;;;;15.73;3.33;;;5.30;99.90;;;;;;5068767;28;20527;-54
2024/01/27 00:59:38;;;;;;;14.57;3.67;;;5.30;99.90;;;;;;5072714;28;20208;-52
2024/01/27 01:02:04;;;;;;;13.43;3.17;;;5.30;99.90;;;;;;5078638;28;20671;-51
2024/01/27 01:04:30;;;;;;;6.90;2.73;;;5.30;99.90;;;;;;5065021;28;20196;-53
2024/01/27 01:06:56;;;;;;;12.23;2.97;;;5.30;99.90;;;;;;5055297;28;20197;-53
2024/01/27 01:09:21;;;;;;;16.13;3.83;;;5.30;99.90;;;;;;5058166;28;20205;-52
2024/01/27 01:11:47;;;;;;;13.97;3.53;;;5.30;99.90;;;;;;5076436;28;20206;-53
2024/01/27 01:14:13;;;;;;;15.97;3.60;;;5.30;99.90;;;;;;5072170;28;20723;-52
2024/01/27 01:16:39;;;;;;;12.67;4.40;;;5.30;99.90;;;;;;5074599;28;20561;-52
2024/01/27 01:19:05;;;;;;;12.23;3.40;;;5.30;99.90;;;;;;5053798;28;20288;-52
2024/01/27 01:21:30;;;;;;;9.70;3.20;;;5.30;99.90;;;;;;5076289;28;21037;-52
2024/01/27 01:23:55;;;;;;;11.20;3.53;;;5.30;99.90;;;;;;5071907;28;20204;-52
2024/01/27 01:26:21;;;;;;;12.33;2.50;;;5.20;99.90;;;;;;5073095;28;20722;-53
2024/01/27 01:28:47;;;;;;;10.57;2.23;;;5.20;99.90;;;;;;5073435;28;20204;-53
2024/01/27 01:31:12;;;;;;;14.87;3.93;;;5.30;99.90;;;;;;5078187;28;20302;-53
2024/01/27 01:33:37;;;;;;;10.07;3.00;;;5.20;99.90;;;;;;5072037;28;20209;-53
2024/01/27 01:36:03;;;;;;;17.50;3.73;;;5.20;99.90;;;;;;5076043;28;20635;-54
2024/01/27 01:38:29;;;;;;;12.97;2.93;;;5.30;99.90;;;;;;5054572;28;20197;-53
2024/01/27 01:40:54;;;;;;;14.77;3.20;;;5.20;99.90;;;;;;5053064;28;20296;-51
2024/01/27 01:43:20;;;;;;;13.43;2.93;;;5.20;99.90;;;;;;5070155;28;20719;-51
2024/01/27 01:45:45;;;;;;;10.00;3.10;;;5.20;99.90;;;;;;5061941;28;20193;-53
2024/01/27 01:48:11;;;;;;;13.77;3.10;;;5.20;99.90;;;;;;5073724;28;20350;-53
2024/01/27 01:50:36;;;;;;;17.70;4.00;;;5.20;99.90;;;;;;5074061;28;20305;-52
2024/01/27 01:53:03;;;;;;;10.40;2.73;;;5.20;99.90;;;;;;5073773;28;20209;-53
2024/01/27 01:55:28;;;;;;;18.37;3.10;;;5.20;99.90;;;;;;5072971;28;20197;-52
2024/01/27 01:57:54;;;;;;;13.73;3.10;;;5.20;99.90;;;;;;5079555;28;20203;-53
2024/01/27 02:00:19;;;;;;;12.83;2.83;;;5.20;99.90;;;;;;5080316;28;20199;-53
2024/01/27 02:02:48;;;;;;;13.90;3.47;;;5.20;99.90;;;;;;5076563;28;20745;-51
2024/01/27 02:05:14;;;;;;;8.63;2.57;;;5.20;99.90;;;;;;5069618;28;20201;-51
2024/01/27 02:07:39;;;;;;;10.87;3.67;;;5.10;99.90;;;;;;5055415;28;20493;-51
2024/01/27 02:10:12;;;;;;;10.97;3.23;;;5.10;99.90;;;;;;5075686;28;20697;-52
2024/01/27 02:12:37;;;;;;;20.30;3.87;;;5.10;99.90;;;;;;5070550;28;20305;-56
2024/01/27 02:15:04;;;;;;;16.50;3.30;;;5.20;99.90;;;;;;5074780;28;20201;-53
2024/01/27 02:17:29;;;;;;;15.37;3.23;;;5.20;99.90;;;;;;5072780;28;20225;-53
2024/01/27 02:19:55;;;;;;;18.80;2.80;;;5.20;99.90;;;;;;5070046;28;20205;-58
2024/01/27 02:22:20;;;;;;;13.53;3.07;;;5.20;99.90;;;;;;5068210;28;20698;-52
2024/01/27 02:24:46;;;;;;;17.83;3.70;;;5.10;99.90;;;;;;5069184;28;20270;-55
2024/01/27 02:27:12;;;;;;;14.83;3.53;;;5.20;99.90;;;;;;5052929;28;20793;-53
2024/01/27 02:29:37;;;;;;;16.77;4.13;;;5.20;99.90;;;;;;5067514;28;20190;-51
2024/01/27 02:32:03;;;;;;;11.20;3.10;;;5.20;99.90;;;;;;5076096;28;20255;-53
2024/01/27 02:34:29;;;;;;;16.37;3.77;;;5.20;99.90;;;;;;5069553;28;20205;-53
2024/01/27 02:36:55;;;;;;;6.10;2.67;;;5.20;99.90;;;;;;5072773;28;20922;-52
2024/01/27 02:39:21;;;;;;;12.97;3.53;;;5.20;99.90;;;;;;5078594;28;20883;-53
2024/01/27 02:41:46;;;;;;;14.87;4.27;;;5.20;99.90;;;;;;5076280;28;21192;-52
2024/01/27 02:44:12;;;;;;;15.17;3.50;;;5.10;99.90;;;;;;5074150;28;20330;-53
2024/01/27 02:46:38;;;;;;;15.43;3.13;;;5.10;99.90;;;;;;5071729;28;20197;-53
2024/01/27 02:49:03;;;;;;;13.80;3.43;;;5.10;99.90;;;;;;5074062;28;20916;-54
2024/01/27 02:51:29;;;;;;;15.53;4.87;;;5.20;99.90;;;;;;5069736;28;20753;-52
2024/01/27 02:53:54;;;;;;;16.83;3.17;;;5.20;99.90;;;;;;5070418;28;20217;-52
2024/01/27 02:56:20;;;;;;;11.83;3.53;;;5.20;99.90;;;;;;5073413;28;20197;-52
2024/01/27 02:58:45;;;;;;;13.10;4.07;;;5.10;99.90;;;;;;5070558;28;20201;-52
2024/01/27 03:01:11;;;;;;;16.70;4.60;;;5.10;99.90;;;;;;5069611;28;20205;-52
2024/01/27 03:03:36;;;;;;;12.60;3.23;;;5.00;99.90;;;;;;5051516;28;20928;-53
2024/01/27 03:06:02;;;;;;;9.93;3.80;;;5.00;99.90;;;;;;5071007;28;20200;-54
2024/01/27 03:08:27;;;;;;;14.03;3.60;;;4.90;99.90;;;;;;5072891;28;20638;-52
2024/01/27 03:10:53;;;;;;;14.13;3.40;;;4.90;99.90;;;;;;5072095;28;20209;-53
2024/01/27 03:13:19;;;;;;;12.87;3.47;;;4.90;99.90;;;;;;5052957;28;20221;-54
2024/01/27 03:15:44;;;;;;;14.43;3.47;;;4.80;99.90;;;;;;5071682;28;20221;-51
2024/01/27 03:18:10;;;;;;;11.10;3.13;;;4.80;99.90;;;;;;5063952;28;20275;-53
2024/01/27 03:20:36;;;;;;;10.97;3.00;;;4.70;99.90;;;;;;5035583;28;20707;-53
2024/01/27 03:23:01;;;;;;;13.70;3.57;;;4.60;99.90;;;;;;5037989;28;20228;-53
2024/01/27 03:25:27;;;;;;;17.30;4.00;;;4.60;99.90;;;;;;5058970;28;20236;-53
2024/01/27 03:27:52;;;;;;;13.13;3.70;;;4.60;99.90;;;;;;5065988;28;20201;-53
2024/01/27 03:30:18;;;;;;;12.60;2.77;;;4.50;99.90;;;;;;5059734;28;20265;-52
2024/01/27 03:32:43;;;;;;;13.27;4.23;;;4.50;99.90;;;;;;5038112;28;20295;-52
2024/01/27 03:35:09;;;;;;;13.47;3.40;;;4.40;99.90;;;;;;5065039;28;20235;-52
2024/01/27 03:37:34;;;;;;;15.77;3.67;;;4.40;99.90;;;;;;5039599;28;20198;-53
2024/01/27 03:40:01;;;;;;;13.13;4.00;;;4.40;99.90;;;;;;5059118;28;20894;-51
2024/01/27 03:42:26;;;;;;;9.50;3.43;;;4.40;99.90;;;;;;5056460;28;20201;-52
2024/01/27 03:44:52;;;;;;;15.00;3.17;;;4.40;99.90;;;;;;5041047;28;20198;-52
2024/01/27 03:47:18;;;;;;;13.33;3.40;;;4.30;99.90;;;;;;5055114;28;20209;-52
2024/01/27 03:49:44;;;;;;;13.10;4.20;;;4.30;99.90;;;;;;5053555;28;20210;-53
2024/01/27 03:52:10;;;;;;;15.83;3.83;;;4.30;99.90;;;;;;5060729;28;20199;-53
2024/01/27 03:54:38;;;;;;;10.03;3.17;;;4.30;99.90;;;;;;5054661;28;20191;-52
2024/01/27 03:57:03;;;;;;;21.90;4.43;;;4.30;99.90;;;;;;5061070;28;20198;-52
2024/01/27 03:59:29;;;;;;;16.80;3.53;;;4.30;99.90;;;;;;5055584;28;20699;-52
2024/01/27 04:01:55;;;;;;;22.27;4.83;;;4.30;99.90;;;;;;5055058;28;20209;-53
2024/01/27 04:04:21;;;;;;;17.23;4.23;;;4.30;99.90;;;;;;5055919;28;20197;-52
2024/01/27 04:06:46;;;;;;;16.67;3.70;;;4.30;99.90;;;;;;5034954;28;20355;-53
2024/01/27 04:09:12;;;;;;;15.83;3.97;;;4.30;99.90;;;;;;5058430;28;20224;-52
2024/01/27 04:11:38;;;;;;;21.47;3.70;;;4.30;99.90;;;;;;5056641;28;20609;-52
2024/01/27 04:14:04;;;;;;;13.70;3.60;;;4.30;99.90;;;;;;5064015;28;20217;-53
2024/01/27 04:16:30;;;;;;;17.60;4.10;;;4.30;99.90;;;;;;5062270;28;20190;-53
2024/01/27 04:18:56;;;;;;;13.77;3.30;;;4.30;99.90;;;;;;5047183;28;20529;-53
2024/01/27 04:21:22;;;;;;;17.80;3.27;;;4.20;99.90;;;;;;5065248;28;20281;-55
2024/01/27 04:23:47;;;;;;;10.87;3.17;;;4.20;99.90;;;;;;5044709;28;20723;-53
2024/01/27 04:26:13;;;;;;;19.80;4.07;;;4.20;99.90;;;;;;5072082;28;20220;-52
2024/01/27 04:28:39;;;;;;;13.23;3.93;;;4.20;99.90;;;;;;5046785;28;20388;-53
2024/01/27 04:31:04;;;;;;;15.97;3.17;;;4.20;99.90;;;;;;5066724;28;20288;-52
2024/01/27 04:33:30;;;;;;;17.67;2.70;;;4.20;99.90;;;;;;5064787;28;20217;-53
2024/01/27 04:35:56;;;;;;;11.23;2.63;;;4.20;99.90;;;;;;5070221;28;20691;-52
2024/01/27 04:38:21;;;;;;;17.60;4.90;;;4.20;99.90;;;;;;5042875;28;20584;-52
2024/01/27 04:40:47;;;;;;;17.73;4.97;;;4.20;99.90;;;;;;5064220;28;20216;-53
2024/01/27 04:43:17;;;;;;;11.73;3.53;;;4.30;99.90;;;;;;5067999;28;20211;-53
2024/01/27 04:45:43;;;;;;;13.27;3.83;;;4.30;99.90;;;;;;5065170;28;20197;-52
2024/01/27 04:48:08;;;;;;;14.97;4.10;;;4.30;99.90;;;;;;5070929;28;20548;-52
2024/01/27 04:50:34;;;;;;;11.13;3.47;;;4.30;99.90;;;;;;5055724;28;20255;-52
2024/01/27 04:52:59;;;;;;;19.53;3.50;;;4.30;99.90;;;;;;5063040;28;20664;-52
2024/01/27 04:55:25;;;;;;;17.73;5.13;;;4.30;99.90;;;;;;5047923;28;20190;-52
2024/01/27 04:57:50;;;;;;;14.13;2.73;;;4.30;99.90;;;;;;5071357;28;20267;-52
2024/01/27 05:00:16;;;;;;;10.70;2.93;;;4.30;99.90;;;;;;5071084;28;20185;-52
2024/01/27 05:02:42;;;;;;;14.80;3.43;;;4.30;99.90;;;;;;5053554;28;20623;-53
2024/01/27 05:05:08;;;;;;;18.87;3.37;;;4.30;99.90;;;;;;5047198;28;20197;-53
2024/01/27 05:07:34;;;;;;;19.67;3.97;;;4.30;99.90;;;;;;5072407;28;20210;-52
2024/01/27 05:09:59;;;;;;;10.50;3.43;;;4.40;99.90;;;;;;5057449;28;20259;-52
2024/01/27 05:12:25;;;;;;;15.33;3.67;;;4.40;99.90;;;;;;5044623;28;20607;-52
2024/01/27 05:14:51;;;;;;;13.20;3.87;;;4.40;99.90;;;;;;5064908;28;20217;-53
2024/01/27 05:17:16;;;;;;;17.07;3.30;;;4.50;99.90;;;;;;5072013;28;20225;-52
2024/01/27 05:19:42;;;;;;;18.07;3.77;;;4.50;99.90;;;;;;5074675;28;20210;-53
2024/01/27 05:22:07;;;;;;;11.70;2.87;;;4.50;99.90;;;;;;5059026;28;20312;-53
2024/01/27 05:24:33;;;;;;;12.67;2.93;;;4.50;99.90;;;;;;5061902;28;20220;-52
2024/01/27 05:26:59;;;;;;;19.43;4.73;;;4.50;99.90;;;;;;5068084;28;20205;-52
2024/01/27 05:29:27;;;;;;;9.47;3.40;;;4.50;99.90;;;;;;5071506;28;20220;-52
2024/01/27 05:31:52;;;;;;;19.13;4.63;;;4.50;99.90;;;;;;5077011;28;20264;-52
2024/01/27 05:34:18;;;;;;;23.77;3.63;;;4.60;99.90;;;;;;5077150;28;20914;-51
2024/01/27 05:36:43;;;;;;;16.90;4.17;;;4.60;99.90;;;;;;5071532;28;20215;-52
2024/01/27 05:39:09;;;;;;;14.20;3.13;;;4.60;99.90;;;;;;5075751;28;20193;-52
2024/01/27 05:41:34;;;;;;;13.97;3.83;;;4.60;99.90;;;;;;5074803;28;20208;-52
2024/01/27 05:44:00;;;;;;;16.17;4.03;;;4.60;99.90;;;;;;5073647;28;20200;-52
2024/01/27 05:46:25;;;;;;;21.27;4.77;;;4.70;99.90;;;;;;5071612;28;20217;-52
2024/01/27 05:48:53;;;;;;;15.80;4.33;;;4.70;99.90;;;;;;5076980;28;20225;-52
2024/01/27 05:51:23;;;;;;;19.30;4.77;;;4.70;99.90;;;;;;5069151;28;20197;-52
2024/01/27 05:53:48;;;;;;;19.03;3.90;;;4.70;99.90;;;;;;5075865;28;20205;-53
2024/01/27 05:56:14;;;;;;;18.33;3.37;;;4.80;99.90;;;;;;5076406;28;20193;-53
2024/01/27 05:58:39;;;;;;;19.67;3.73;;;4.80;99.90;;;;;;5075371;28;20559;-52
2024/01/27 06:01:05;;;;;;;13.23;4.20;;;4.80;99.90;;;;;;5074635;28;20243;-52
2024/01/27 06:03:32;;;;;;;20.80;3.10;;;4.80;99.90;;;;;;5083536;28;20291;-52
2024/01/27 06:05:57;;;;;;;18.37;4.37;;;4.90;99.90;;;;;;5076860;28;20227;-52
2024/01/27 06:08:23;;;;;;;20.43;3.67;;;4.90;99.90;;;;;;5070874;28;20233;-52
2024/01/27 06:10:48;;;;;;;17.30;3.30;;;4.90;99.90;;;;;;5075502;28;20262;-52
2024/01/27 06:13:14;;;;;;;8.13;2.80;;;5.00;99.90;;;;;;5077618;28;20316;-53
2024/01/27 06:15:39;;;;;;;14.67;3.20;;;5.00;99.90;;;;;;5074358;28;20201;-53
2024/01/27 06:18:05;;;;;;;11.73;3.07;;;5.00;99.90;;;;;;5062546;28;20221;-53
2024/01/27 06:20:31;;;;;;;11.63;3.37;;;5.00;99.90;;;;;;5074976;28;20904;-53
2024/01/27 06:22:57;;;;;;;18.77;3.93;;;5.00;99.90;;;;;;5056101;28;20201;-53
2024/01/27 06:25:24;;;;;;;6.53;2.90;;;5.00;99.90;;;;;;5077150;28;20211;-53
2024/01/27 06:27:49;;;;;;;10.37;3.47;;;5.00;99.90;;;;;;5067017;28;20212;-54
2024/01/27 06:30:15;;;;;;;22.73;4.50;;;5.00;99.90;;;;;;5075479;28;20200;-52
2024/01/27 06:32:41;;;;;;;15.23;4.53;;;5.00;99.90;;;;;;5081881;28;20225;-53
2024/01/27 06:35:07;;;;;;;14.27;3.37;;;5.00;99.90;;;;;;5078904;28;20276;-53
2024/01/27 06:37:33;;;;;;;13.40;4.47;;;5.00;99.90;;;;;;5077119;28;20190;-52
2024/01/27 06:39:58;;;;;;;22.03;3.53;;;4.90;99.90;;;;;;5074556;28;20216;-52
2024/01/27 06:42:24;;;;;;;21.03;4.30;;;4.90;99.90;;;;;;5056996;28;20197;-53
2024/01/27 06:44:49;;;;;;;7.73;3.00;;;4.90;99.90;;;;;;5061369;28;20208;-52
2024/01/27 06:47:15;;;;;;;18.63;4.30;;;4.90;99.90;;;;;;5078125;28;20214;-52
2024/01/27 06:49:40;;;;;;;10.67;3.07;;;5.00;99.90;;;;;;5082831;28;20718;-51
2024/01/27 06:52:06;;;;;;;11.17;3.40;;;4.90;99.90;;;;;;5080729;28;20571;-53
2024/01/27 06:54:31;;;;;;;11.17;3.10;;;4.90;99.90;;;;;;5075099;28;20240;-53
2024/01/27 06:57:00;;;;;;;18.80;4.07;;;4.90;99.90;;;;;;5075683;28;20201;-52
2024/01/27 06:59:25;;;;;;;11.03;3.40;;;5.00;99.90;;;;;;5079159;28;20189;-52
2024/01/27 07:01:51;;;;;;;13.80;4.10;;;5.00;99.90;;;;;;5076996;28;20212;-52
2024/01/27 07:04:17;;;;;;;18.00;3.77;;;5.00;99.90;;;;;;5082297;28;20197;-52
2024/01/27 07:06:42;;;;;;;11.17;3.50;;;5.00;99.90;;;;;;5082980;28;20189;-53
2024/01/27 07:09:09;;;;;;;14.63;3.63;;;5.00;99.90;;;;;;5078744;28;20796;-52
2024/01/27 07:11:35;;;;;;;19.27;4.37;;;5.00;99.90;;;;;;5081055;28;20557;-52
2024/01/27 07:14:00;;;;;;;12.17;3.53;;;5.00;99.90;;;;;;5077860;28;20901;-52
2024/01/27 07:16:26;;;;;;;14.70;3.00;;;5.00;99.90;;;;;;5063876;28;20374;-52
2024/01/27 07:18:51;;;;;;;12.63;3.10;;;5.00;99.90;;;;;;5076177;28;20217;-52
2024/01/27 07:21:17;;;;;;;11.60;3.20;;;5.00;99.90;;;;;;5078219;28;20206;-52
2024/01/27 07:23:43;;;;;;;11.00;3.50;;;5.00;99.90;;;;;;5082177;28;20228;-52
2024/01/27 07:26:10;;;;;;;16.70;3.97;;;5.10;99.90;;;;;;5078248;28;20228;-53
2024/01/27 07:28:36;;;;;;;14.00;4.07;;;5.10;99.90;;;;;;5087551;28;20227;-53
2024/01/27 07:31:01;;;;;;;15.87;3.97;;;5.10;99.90;;;;;;5080937;28;20784;-53
2024/01/27 07:33:27;;;;;;;13.20;4.23;;;5.10;99.90;;;;;;5057506;28;20786;-53
2024/01/27 07:35:52;;;;;;;19.93;4.03;;;5.10;99.90;;;;;;5082126;28;21053;-52
2024/01/27 07:38:18;;;;;;;18.30;3.30;;;5.10;99.90;;;;;;5081769;28;20679;-52
2024/01/27 07:40:43;;;;;;;20.47;3.57;;;5.20;99.90;;;;;;5074469;28;20201;-53
2024/01/27 07:43:09;;;;;;;12.07;3.37;;;5.20;99.90;;;;;;5071025;28;20649;-54
2024/01/27 07:45:34;;;;;;;18.00;3.87;;;5.20;99.90;;;;;;5085982;28;20342;-54
2024/01/27 07:48:00;;;;;;;13.27;3.30;;;5.20;99.90;;;;;;5076911;28;20653;-58
2024/01/27 07:50:26;;;;;;;14.73;4.80;;;5.20;99.90;;;;;;5077019;28;20719;-53
2024/01/27 07:52:51;;;;;;;11.10;3.90;;;5.30;99.90;;;;;;5077502;28;20225;-54
2024/01/27 07:55:17;;;;;;;13.10;3.57;;;5.30;99.90;;;;;;5078212;28;20209;-54
2024/01/27 07:57:42;;;;;;;13.67;4.30;;;5.30;99.90;;;;;;5076936;28;20226;-54
2024/01/27 08:00:08;;;;;;;14.90;3.70;;;5.30;99.90;;;;;;5079611;28;20271;-53
2024/01/27 08:02:34;;;;;;;13.97;3.33;;;5.30;99.90;;;;;;5072216;28;20229;-53
2024/01/27 08:05:00;;;;;;;15.20;3.13;;;5.30;99.90;;;;;;5074484;28;20202;-56
2024/01/27 08:07:25;;;;;;;12.37;4.13;;;5.40;99.90;;;;;;5055111;28;20212;-59
2024/01/27 08:09:52;;;;;;;13.80;3.30;;;5.40;99.90;;;;;;5074953;28;20207;-56
2024/01/27 08:12:18;;;;;;;15.80;4.07;;;5.40;99.90;;;;;;5058921;28;20224;-58
2024/01/27 08:14:45;;;;;;;10.57;2.53;;;5.40;99.90;;;;;;5062205;28;20236;-54
2024/01/27 08:17:11;;;;;;;18.07;3.90;;;5.70;99.90;;;;;;5061277;28;20249;-57
2024/01/27 08:19:37;;;;;;;14.33;3.60;;;6.10;99.90;;;;;;5083956;28;21108;-53
2024/01/27 08:22:03;;;;;;;13.53;3.43;;;5.90;99.90;;;;;;5070719;28;20200;-53
2024/01/27 08:24:28;;;;;;;13.40;3.40;;;5.80;99.90;;;;;;5070030;28;20196;-53
2024/01/27 08:26:54;;;;;;;11.67;2.80;;;5.90;99.90;;;;;;5074903;28;20201;-54
2024/01/27 08:29:19;;;;;;;11.00;3.30;;;5.90;99.90;;;;;;5070769;28;20225;-53
2024/01/27 08:31:45;;;;;;;10.60;3.10;;;5.80;99.90;;;;;;5074246;28;20225;-56
2024/01/27 08:34:12;;;;;;;11.37;3.57;;;5.70;99.90;;;;;;5076682;28;20217;-56
2024/01/27 08:36:38;;;;;;;16.50;3.37;;;5.70;99.90;;;;;;5077825;28;20254;-54
2024/01/27 08:39:04;;;;;;;15.63;3.40;;;6.10;99.90;;;;;;5082831;28;20209;-54
2024/01/27 08:41:30;;;;;;;11.33;4.07;;;6.00;99.90;;;;;;5070477;28;20181;-59
2024/01/27 08:43:55;;;;;;;11.73;3.23;;;6.00;99.90;;;;;;5067770;28;20341;-54
2024/01/27 08:46:22;;;;;;;16.50;4.37;;;6.00;99.90;;;;;;5083727;28;20205;-54
2024/01/27 08:48:47;;;;;;;14.27;3.60;;;6.00;99.90;;;;;;5053297;28;20212;-54
2024/01/27 08:51:15;;;;;;;14.80;2.93;;;6.00;99.90;;;;;;5048745;28;20201;-54
2024/01/27 08:53:42;;;;;;;10.43;3.00;;;5.90;99.90;;;;;;5055020;28;20209;-54
2024/01/27 08:56:07;;;;;;;16.30;3.50;;;6.10;99.90;;;;;;5076932;28;20201;-56
2024/01/27 08:58:33;;;;;;;10.27;3.50;;;6.20;99.90;;;;;;5084123;28;20721;-56
2024/01/27 09:01:00;;;;;;;14.33;3.17;;;6.10;99.90;;;;;;5082857;28;20237;-57
2024/01/27 09:03:26;;;;;;;10.50;3.13;;;6.00;99.90;;;;;;5074428;28;20631;-53
2024/01/27 09:05:51;;;;;;;12.27;3.60;;;6.00;99.90;;;;;;5068855;28;21477;-54
2024/01/27 09:08:17;;;;;;;20.17;3.73;;;6.10;99.90;;;;;;5076382;28;20222;-52
2024/01/27 09:10:42;;;;;;;20.60;3.80;;;6.10;99.90;;;;;;5074319;28;20197;-53
2024/01/27 09:13:08;;;;;;;12.07;3.03;;;6.00;99.90;;;;;;5075345;28;20213;-52
2024/01/27 09:15:33;;;;;;;12.47;3.67;;;5.90;99.90;;;;;;5078953;28;20435;-52
2024/01/27 09:17:59;;;;;;;7.83;3.00;;;5.90;99.90;;;;;;5071313;28;20650;-53
2024/01/27 09:20:24;;;;;;;15.97;4.20;;;5.90;99.90;;;;;;5075975;28;20627;-53
2024/01/27 09:22:50;;;;;;;12.60;4.40;;;6.00;99.90;;;;;;5085450;28;20211;-54
2024/01/27 09:25:16;;;;;;;10.47;3.10;;;5.90;99.90;;;;;;5056067;28;20267;-54
2024/01/27 09:27:42;;;;;;;15.60;3.10;;;6.00;99.90;;;;;;5076154;28;20197;-54
2024/01/27 09:30:08;;;;;;;12.00;3.07;;;6.00;99.90;;;;;;5082183;28;20200;-61
2024/01/27 09:32:34;;;;;;;10.07;3.63;;;6.00;99.90;;;;;;5077786;28;20273;-52
2024/01/27 09:34:59;;;;;;;19.43;4.00;;;6.00;99.90;;;;;;5071882;28;20659;-53
2024/01/27 09:37:25;;;;;;;12.27;3.30;;;6.10;99.90;;;;;;5070210;28;20318;-58
2024/01/27 09:39:50;;;;;;;14.63;3.13;;;6.00;99.90;;;;;;5073237;28;20284;-53
2024/01/27 09:42:20;;;;;;;12.37;4.03;;;6.00;99.90;;;;;;5052331;28;20193;-58
2024/01/27 09:44:49;;;;;;;14.00;4.83;;;6.00;99.90;;;;;;5071109;28;20220;-53
2024/01/27 09:47:15;;;;;;;12.37;3.77;;;6.00;99.90;;;;;;5074656;28;20192;-53
2024/01/27 09:49:42;;;;;;;17.43;3.20;;;6.00;99.90;;;;;;5072335;28;20193;-53
2024/01/27 09:52:08;;;;;;;13.90;4.00;;;6.10;99.90;;;;;;5069619;28;20296;-56
2024/01/27 09:54:34;;;;;;;15.87;3.43;;;6.10;99.90;;;;;;5067960;28;20273;-57
2024/01/27 09:57:00;;;;;;;20.67;4.00;;;6.10;99.90;;;;;;5053102;28;20209;-55
2024/01/27 09:59:26;;;;;;;15.30;3.70;;;6.10;99.90;;;;;;5053035;28;20224;-53
2024/01/27 10:01:53;;;;;;;19.03;4.10;;;6.20;99.90;;;;;;5068233;28;20616;-53
2024/01/27 10:04:22;;;;;;;20.77;3.70;;;6.20;99.90;;;;;;5067679;28;20765;-54
2024/01/27 10:06:50;;;;;;;20.20;4.53;;;6.20;99.90;;;;;;5073527;28;20224;-53
2024/01/27 10:09:17;;;;;;;15.13;3.57;;;6.30;99.90;;;;;;5069508;28;20212;-54
2024/01/27 10:11:47;;;;;;;12.83;3.00;;;6.20;99.90;;;;;;5068682;28;20307;-53
2024/01/27 10:14:13;;;;;;;10.00;3.00;;;6.30;99.90;;;;;;5069019;28;20319;-53
2024/01/27 10:16:44;;;;;;;12.90;3.30;;;6.30;99.90;;;;;;5070240;28;20688;-55
2024/01/27 10:19:17;;;;;;;14.47;3.40;;;6.30;99.90;;;;;;5070511;28;20225;-54
2024/01/27 10:21:43;;;;;;;12.93;4.07;;;6.60;99.90;;;;;;5068609;28;20217;-56
2024/01/27 10:24:08;;;;;;;11.50;3.27;;;6.50;99.90;;;;;;5075746;28;20206;-60
2024/01/27 10:26:34;;;;;;;12.07;3.40;;;6.70;99.90;;;;;;5054414;28;20890;-63
2024/01/27 10:29:01;;;;;;;16.83;4.60;;;6.50;99.90;;;;;;5071906;28;21016;-65
2024/01/27 10:31:28;;;;;;;10.60;3.37;;;6.40;99.90;;;;;;5070474;28;20663;-53
2024/01/27 10:33:56;;;;;;;17.90;3.53;;;6.40;99.90;;;;;;5072077;28;20302;-54
2024/01/27 10:36:21;;;;;;;23.33;3.77;;;6.40;99.90;;;;;;5076105;28;20568;-53
2024/01/27 10:38:47;;;;;;;7.83;2.70;;;6.40;99.90;;;;;;5070249;28;20205;-54
2024/01/27 10:41:23;;;;;;;16.83;3.80;;;6.30;99.90;;;;;;5067373;28;20193;-54
2024/01/27 10:43:54;;;;;;;17.40;4.33;;;6.40;99.90;;;;;;5074096;28;20204;-53
2024/01/27 10:46:23;;;;;;;16.17;3.43;;;6.40;99.90;;;;;;5069218;28;20201;-54
2024/01/27 10:48:53;;;;;;;18.77;4.27;;;6.20;99.90;;;;;;5066827;28;20236;-54
2024/01/27 10:51:42;;;;;;;15.00;3.53;;;6.30;99.90;;;;;;5051053;28;20300;-60
2024/01/27 10:54:11;;;;;;;11.43;3.40;;;6.30;99.90;;;;;;5072011;28;20300;-53
2024/01/27 10:56:38;;;;;;;19.90;4.00;;;6.30;99.90;;;;;;5052222;28;20395;-59
2024/01/27 10:59:08;;;;;;;16.67;4.10;;;6.40;99.90;;;;;;5077668;28;20625;-54
2024/01/27 11:01:36;;;;;;;12.60;2.93;;;6.50;99.90;;;;;;5069277;28;20197;-52
2024/01/27 11:04:06;;;;;;;13.67;3.23;;;6.50;99.90;;;;;;5068586;28;20625;-53
2024/01/27 11:06:32;;;;;;;19.90;4.60;;;6.50;99.90;;;;;;5075998;28;20178;-53
2024/01/27 11:08:59;;;;;;;11.70;3.57;;;6.40;99.90;;;;;;5075013;28;20194;-53
2024/01/27 11:11:25;;;;;;;9.53;4.10;;;6.40;99.90;;;;;;5065419;28;20403;-53
2024/01/27 11:13:50;;;;;;;19.03;4.33;;;6.40;99.90;;;;;;5071486;28;20703;-52
2024/01/27 11:16:17;;;;;;;10.13;3.63;;;6.40;99.90;;;;;;5071961;28;20193;-53
2024/01/27 11:18:44;;;;;;;14.17;4.07;;;6.40;99.90;;;;;;5068912;28;20232;-54
2024/01/27 11:21:17;;;;;;;19.63;4.80;;;6.40;99.90;;;;;;5069994;28;20775;-54
2024/01/27 11:23:43;;;;;;;22.43;4.37;;;6.40;99.90;;;;;;5070025;28;20719;-53
2024/01/27 11:26:09;;;;;;;16.63;3.87;;;6.40;99.90;;;;;;5078538;28;20554;-53
2024/01/27 11:28:36;;;;;;;13.10;3.73;;;6.40;99.90;;;;;;5073649;28;20280;-52
2024/01/27 11:31:08;;;;;;;12.90;4.30;;;6.40;99.90;;;;;;5072286;28;20663;-52
2024/01/27 11:33:40;;;;;;;11.63;3.63;;;6.30;99.90;;;;;;5056994;28;20217;-52
2024/01/27 11:36:06;;;;;;;16.97;4.07;;;6.30;99.90;;;;;;5074418;28;20198;-52
2024/01/27 11:38:32;;;;;;;14.80;3.40;;;6.40;99.90;;;;;;5078276;28;20614;-52
2024/01/27 11:41:01;;;;;;;20.10;5.10;;;6.40;99.90;;;;;;5077613;28;20879;-53
2024/01/27 11:43:27;;;;;;;11.00;4.57;;;6.40;99.90;;;;;;5077964;28;20197;-53
2024/01/27 11:45:57;;;;;;;13.93;4.70;;;6.40;99.90;;;;;;5076923;28;20683;-53
2024/01/27 11:48:23;;;;;;;10.93;3.90;;;6.40;99.90;;;;;;5057526;28;20232;-53
2024/01/27 11:50:48;;;;;;;16.20;4.13;;;6.30;99.90;;;;;;5072047;28;20284;-53
2024/01/27 11:53:14;;;;;;;14.07;4.33;;;6.30;99.90;;;;;;5079656;28;20221;-53
2024/01/27 11:55:39;;;;;;;15.57;3.47;;;6.40;99.90;;;;;;5073679;28;20266;-52
2024/01/27 11:58:05;;;;;;;16.30;4.60;;;6.40;99.90;;;;;;5071214;28;20237;-52
2024/01/27 12:00:30;;;;;;;18.77;4.13;;;6.40;99.90;;;;;;5073274;28;20197;-52
2024/01/27 12:02:56;;;;;;;17.40;5.47;;;6.50;99.90;;;;;;5056309;28;20633;-52
2024/01/27 12:05:22;;;;;;;13.40;7.00;;;6.60;99.90;;;;;;5076334;28;20185;-52
2024/01/27 12:07:47;;;;;;;14.93;4.27;;;6.40;99.90;;;;;;5073736;28;20200;-52
2024/01/27 12:10:13;;;;;;;13.43;3.53;;;6.50;99.90;;;;;;5079477;28;20229;-52
2024/01/27 12:12:39;;;;;;;18.20;4.87;;;6.40;99.90;;;;;;5077156;28;20204;-53
2024/01/27 12:15:05;;;;;;;17.33;4.77;;;6.50;99.90;;;;;;5073875;28;20201;-53
2024/01/27 12:17:30;;;;;;;15.00;5.37;;;6.40;99.90;;;;;;5069746;28;20225;-52
2024/01/27 12:19:56;;;;;;;16.00;5.10;;;6.30;99.90;;;;;;5075909;28;20205;-52
2024/01/27 12:22:29;;;;;;;14.43;4.23;;;6.30;99.90;;;;;;5073675;28;20197;-53
2024/01/27 12:24:55;;;;;;;11.60;4.80;;;6.40;99.90;;;;;;5074806;28;20213;-53
2024/01/27 12:27:24;;;;;;;19.40;5.07;;;6.40;99.90;;;;;;5072954;28;20206;-52
2024/01/27 12:29:49;;;;;;;14.17;4.00;;;6.50;99.90;;;;;;5075448;28;20239;-53
2024/01/27 12:32:16;;;;;;;13.17;4.10;;;6.50;99.90;;;;;;5072176;28;20569;-53
2024/01/27 12:34:43;;;;;;;16.33;4.50;;;6.50;99.90;;;;;;5074810;28;20217;-53
2024/01/27 12:37:11;;;;;;;13.87;4.83;;;6.30;99.90;;;;;;5076487;28;20209;-53
2024/01/27 12:39:38;;;;;;;12.33;3.47;;;6.40;99.90;;;;;;5063170;28;20202;-52
2024/01/27 12:42:04;;;;;;;11.87;3.53;;;6.40;99.90;;;;;;5076987;28;20293;-53